Forseti — V2PV4 — position and weather

sailwx.info

Track history (hours):
 
Tides and Currents Weather Stations Pressure Air Temp Water Temp Dewpoint Dewpoint Depression Visibility Wind Speed Wind Dir Waves Ship Positions

Forseti

Last reported at 2014-Sep-19 01:04 UTC. Time now 2014-Sep-19 01:48 UTC.
Position N 53°47' E 009°25'.

Length 85 m; draft 5.6 m.

Type: Cargo ship. MMSI: 304010297.

Date/timePositionNaut miles runAvg speedWind from/ knotsBaromVisibWave heightAir tempDewpointWater temp
2014-Sep-19 01:04N 53°47' E 009°25'0 0.0
2014-Sep-19 00:28N 53°47' E 009°25'0 0.0
2014-Sep-18 23:31N 53°47' E 009°25'0 0.0
2014-Sep-18 22:28N 53°47' E 009°25'0 0.0
2014-Sep-18 21:33N 53°47' E 009°25'0 0.1
2014-Sep-18 20:32N 53°47' E 009°24'6 6.3
2014-Sep-18 19:32N 53°52' E 009°17'5 3.8
2014-Sep-18 18:21N 53°53' E 009°10'0 0.1
2014-Sep-18 17:30N 53°53' E 009°10'0 0.0
2014-Sep-18 16:33N 53°53' E 009°10'0 0.1
2014-Sep-18 15:33N 53°53' E 009°10'0 0.0
2014-Sep-18 14:33N 53°53' E 009°10'0 0.0
2014-Sep-18 11:27N 53°53' E 009°10'4 4.8
2014-Sep-18 10:33N 53°52' E 009°02'8 7.6
2014-Sep-18 09:33N 53°50' E 008°50'8 7.9
2014-Sep-18 08:33N 53°56' E 008°40'8 8.2
2014-Sep-18 07:33N 53°59' E 008°27'9 8.9
2014-Sep-18 06:33N 53°59' E 008°12'9 9.4
2014-Sep-18 05:33N 53°57' E 007°56'30 9.9
2014-Sep-18 02:30N 53°50' E 007°06'29 9.8
2014-Sep-17 23:32N 53°43' E 006°18'9 9.1
2014-Sep-17 22:33N 53°40' E 006°04'9 8.7
2014-Sep-17 21:33N 53°38' E 005°50'8 8.3
2014-Sep-17 20:33N 53°35' E 005°37'8 7.9
2014-Sep-17 19:33N 53°33' E 005°24'8 7.9
2014-Sep-17 18:33N 53°30' E 005°12'8 7.9
2014-Sep-17 17:33N 53°27' E 004°59'8 8.2
2014-Sep-17 16:33N 53°24' E 004°47'9 8.2
2014-Sep-17 15:31N 53°17' E 004°38'59 9.7
2014-Sep-17 09:27N 52°29' E 003°42'1010.6
2014-Sep-17 08:32N 52°21' E 003°32'1010.7
2014-Sep-17 07:33N 52°14' E 003°21'22 9.4
2014-Sep-17 05:16N 51°54' E 003°06'7 8.6
2014-Sep-17 04:25N 51°47' E 003°11'7 7.9
2014-Sep-17 03:31N 51°42' E 003°18'9 8.9
2014-Sep-17 02:33N 51°34' E 003°24'8 8.1
2014-Sep-17 01:33N 51°27' E 003°31'8 7.6
2014-Sep-17 00:33N 51°24' E 003°43'6 6.2
2014-Sep-16 23:34N 51°20' E 003°49'2 2.0
2014-Sep-16 22:33N 51°18' E 003°50'8 7.7
2014-Sep-16 21:33N 51°10' E 003°48'5 5.0
2014-Sep-16 20:33N 51°05' E 003°45'0 0.0
2014-Sep-16 19:31N 51°05' E 003°45'0 0.0
2014-Sep-16 18:31N 51°05' E 003°45'0 0.0
2014-Sep-16 17:31N 51°05' E 003°45'0 0.0
2014-Sep-16 16:28N 51°05' E 003°45'0 0.0
2014-Sep-16 15:31N 51°05' E 003°45'0 0.0
2014-Sep-16 14:31N 51°05' E 003°45'0 0.0
2014-Sep-16 13:31N 51°05' E 003°45'0 0.0
2014-Sep-16 12:31N 51°05' E 003°45'0 0.0
2014-Sep-16 11:22N 51°05' E 003°45'0 0.0
2014-Sep-16 10:28N 51°05' E 003°45'0 0.0
2014-Sep-16 09:31N 51°05' E 003°45'0 0.0
2014-Sep-16 08:28N 51°05' E 003°45'0 0.0
2014-Sep-16 07:31N 51°05' E 003°45'0 0.0
2014-Sep-16 06:28N 51°05' E 003°45'0 0.0
2014-Sep-16 05:33N 51°05' E 003°45'0 0.2
2014-Sep-16 04:33N 51°05' E 003°45'0 0.0
2014-Sep-16 03:34N 51°05' E 003°45'0 0.1
2014-Sep-16 02:33N 51°05' E 003°45'0 0.0
2014-Sep-16 01:33N 51°05' E 003°45'0 0.0
2014-Sep-16 00:33N 51°05' E 003°45'0 0.0
2014-Sep-15 23:33N 51°05' E 003°45'0 0.0
2014-Sep-15 22:33N 51°05' E 003°45'0 0.0
2014-Sep-15 21:33N 51°05' E 003°45'0 0.0
2014-Sep-15 20:33N 51°05' E 003°45'0 0.0
2014-Sep-15 19:33N 51°05' E 003°45'0 0.0
2014-Sep-15 18:33N 51°05' E 003°45'0 0.0
2014-Sep-15 17:33N 51°05' E 003°45'0 0.0
2014-Sep-15 16:33N 51°05' E 003°45'0 0.0
2014-Sep-15 15:33N 51°05' E 003°45'0 0.0
2014-Sep-15 14:33N 51°05' E 003°45'0 0.2
2014-Sep-15 13:28N 51°06' E 003°45'0 0.0
2014-Sep-15 12:28N 51°06' E 003°45'0 0.0
2014-Sep-15 11:31N 51°06' E 003°45'0 0.0
2014-Sep-15 10:31N 51°06' E 003°45'0 0.0
2014-Sep-15 09:28N 51°06' E 003°45'0 0.0
2014-Sep-15 08:31N 51°06' E 003°45'0 0.0
2014-Sep-15 07:28N 51°06' E 003°45'0 0.0
2014-Sep-15 06:34N 51°06' E 003°45'0 0.0
2014-Sep-15 05:22N 51°06' E 003°45'0 0.0
2014-Sep-15 04:33N 51°06' E 003°45'0 0.0
2014-Sep-15 03:33N 51°06' E 003°45'0 0.0
2014-Sep-15 02:33N 51°06' E 003°45'0 0.0
2014-Sep-15 01:27N 51°06' E 003°45'0 0.0
2014-Sep-15 00:33N 51°06' E 003°45'0 0.0
2014-Sep-14 23:34N 51°06' E 003°45'0 0.0
2014-Sep-14 22:33N 51°06' E 003°45'0 0.0
2014-Sep-14 21:33N 51°06' E 003°45'0 0.0
2014-Sep-14 20:33N 51°06' E 003°45'0 0.0
2014-Sep-14 19:33N 51°06' E 003°45'0 0.0
2014-Sep-14 18:33N 51°06' E 003°45'0 0.0
2014-Sep-14 17:33N 51°06' E 003°45'0 0.0
2014-Sep-14 16:33N 51°06' E 003°45'0 0.0
2014-Sep-14 15:33N 51°06' E 003°45'0 0.0
2014-Sep-14 14:33N 51°06' E 003°45'0 0.0
2014-Sep-14 13:33N 51°06' E 003°45'0 0.0
2014-Sep-14 12:33N 51°06' E 003°45'0 0.0
2014-Sep-14 11:33N 51°06' E 003°45'0 0.0
2014-Sep-14 10:33N 51°06' E 003°45'0 0.0
2014-Sep-14 09:33N 51°06' E 003°45'0 0.0
2014-Sep-14 08:30N 51°06' E 003°45'0 0.0
2014-Sep-14 07:30N 51°06' E 003°45'0 0.0
2014-Sep-14 06:33N 51°06' E 003°45'0 0.0
2014-Sep-14 05:33N 51°06' E 003°45'0 0.0
2014-Sep-14 04:33N 51°06' E 003°45'0 0.0
2014-Sep-14 03:30N 51°06' E 003°45'0 0.0
2014-Sep-14 02:33N 51°06' E 003°45'0 0.0
2014-Sep-14 01:33N 51°06' E 003°45'0 0.0
2014-Sep-13 21:33N 51°06' E 003°45'0 0.0
2014-Sep-13 20:33N 51°06' E 003°45'0 0.0
2014-Sep-13 19:33N 51°06' E 003°45'0 0.0
2014-Sep-13 18:33N 51°06' E 003°45'0 0.0
2014-Sep-13 17:33N 51°06' E 003°45'0 0.0
2014-Sep-13 16:33N 51°06' E 003°45'0 0.0
2014-Sep-13 15:33N 51°06' E 003°45'0 0.0
2014-Sep-13 14:27N 51°06' E 003°45'0 0.0
2014-Sep-13 13:32N 51°06' E 003°45'0 0.0
2014-Sep-13 12:32N 51°06' E 003°45'7 6.6
2014-Sep-13 11:33N 51°12' E 003°48'8 7.7
2014-Sep-13 10:33N 51°19' E 003°49'1 0.7
2014-Sep-13 09:33N 51°20' E 003°49'6 6.1
2014-Sep-13 08:33N 51°24' E 003°41'7 6.6
2014-Sep-13 07:33N 51°27' E 003°32'7 7.1
2014-Sep-13 06:33N 51°33' E 003°25'8 8.2
2014-Sep-13 05:33N 51°40' E 003°19'8 7.0
2014-Sep-13 04:26N 51°45' E 003°10'5 4.7
2014-Sep-13 03:28N 51°47' E 003°02'7 7.2
2014-Sep-13 02:33N 51°49' E 002°53'9 9.3
2014-Sep-13 01:33N 51°55' E 002°41'35 8.8
2014-Sep-12 21:33N 52°25' E 002°11'9 9.0
2014-Sep-12 20:33N 52°33' E 002°04'9 9.2
2014-Sep-12 19:33N 52°41' E 001°57'9 9.2
2014-Sep-12 18:33N 52°48' E 001°47'9 8.7
2014-Sep-12 17:33N 52°53' E 001°36'8 7.6
2014-Sep-12 16:33N 52°58' E 001°26'8 7.5
2014-Sep-12 15:33N 53°03' E 001°16'35 0.9
2014-Sep-11 00:03N 52°58' E 000°18'1 0.3
2014-Sep-10 20:32N 52°58' E 000°20'10 8.2
2014-Sep-10 19:20N 52°48' E 000°22'  
Track history (hours):
 
Tides and Currents Weather Stations Pressure Air Temp Water Temp Dewpoint Dewpoint Depression Visibility Wind Speed Wind Dir Waves Ship Positions

Forseti

Last reported at 2014-Sep-19 01:04 UTC. Time now 2014-Sep-19 01:48 UTC.
Position N 53°47' E 009°25'.

Length 85 m; draft 5.6 m.

Type: Cargo ship. MMSI: 304010297.

Date/timePositionNaut miles runAvg speedWind from/ knotsBaromVisibWave heightAir tempDewpointWater temp
2014-Sep-19 01:04N 53°47' E 009°25'0 0.0
2014-Sep-19 00:28N 53°47' E 009°25'0 0.0
2014-Sep-18 23:31N 53°47' E 009°25'0 0.0
2014-Sep-18 22:28N 53°47' E 009°25'0 0.0
2014-Sep-18 21:33N 53°47' E 009°25'0 0.1
2014-Sep-18 20:32N 53°47' E 009°24'6 6.3
2014-Sep-18 19:32N 53°52' E 009°17'5 3.8
2014-Sep-18 18:21N 53°53' E 009°10'0 0.1
2014-Sep-18 17:30N 53°53' E 009°10'0 0.0
2014-Sep-18 16:33N 53°53' E 009°10'0 0.1
2014-Sep-18 15:33N 53°53' E 009°10'0 0.0
2014-Sep-18 14:33N 53°53' E 009°10'0 0.0
2014-Sep-18 11:27N 53°53' E 009°10'4 4.8
2014-Sep-18 10:33N 53°52' E 009°02'8 7.6
2014-Sep-18 09:33N 53°50' E 008°50'8 7.9
2014-Sep-18 08:33N 53°56' E 008°40'8 8.2
2014-Sep-18 07:33N 53°59' E 008°27'9 8.9
2014-Sep-18 06:33N 53°59' E 008°12'9 9.4
2014-Sep-18 05:33N 53°57' E 007°56'30 9.9
2014-Sep-18 02:30N 53°50' E 007°06'29 9.8
2014-Sep-17 23:32N 53°43' E 006°18'9 9.1
2014-Sep-17 22:33N 53°40' E 006°04'9 8.7
2014-Sep-17 21:33N 53°38' E 005°50'8 8.3
2014-Sep-17 20:33N 53°35' E 005°37'8 7.9
2014-Sep-17 19:33N 53°33' E 005°24'8 7.9
2014-Sep-17 18:33N 53°30' E 005°12'8 7.9
2014-Sep-17 17:33N 53°27' E 004°59'8 8.2
2014-Sep-17 16:33N 53°24' E 004°47'9 8.2
2014-Sep-17 15:31N 53°17' E 004°38'59 9.7
2014-Sep-17 09:27N 52°29' E 003°42'1010.6
2014-Sep-17 08:32N 52°21' E 003°32'1010.7
2014-Sep-17 07:33N 52°14' E 003°21'22 9.4
2014-Sep-17 05:16N 51°54' E 003°06'7 8.6
2014-Sep-17 04:25N 51°47' E 003°11'7 7.9
2014-Sep-17 03:31N 51°42' E 003°18'9 8.9
2014-Sep-17 02:33N 51°34' E 003°24'8 8.1
2014-Sep-17 01:33N 51°27' E 003°31'8 7.6
2014-Sep-17 00:33N 51°24' E 003°43'6 6.2
2014-Sep-16 23:34N 51°20' E 003°49'2 2.0
2014-Sep-16 22:33N 51°18' E 003°50'8 7.7
2014-Sep-16 21:33N 51°10' E 003°48'5 5.0
2014-Sep-16 20:33N 51°05' E 003°45'0 0.0
2014-Sep-16 19:31N 51°05' E 003°45'0 0.0
2014-Sep-16 18:31N 51°05' E 003°45'0 0.0
2014-Sep-16 17:31N 51°05' E 003°45'0 0.0
2014-Sep-16 16:28N 51°05' E 003°45'0 0.0
2014-Sep-16 15:31N 51°05' E 003°45'0 0.0
2014-Sep-16 14:31N 51°05' E 003°45'0 0.0
2014-Sep-16 13:31N 51°05' E 003°45'0 0.0
2014-Sep-16 12:31N 51°05' E 003°45'0 0.0
2014-Sep-16 11:22N 51°05' E 003°45'0 0.0
2014-Sep-16 10:28N 51°05' E 003°45'0 0.0
2014-Sep-16 09:31N 51°05' E 003°45'0 0.0
2014-Sep-16 08:28N 51°05' E 003°45'0 0.0
2014-Sep-16 07:31N 51°05' E 003°45'0 0.0
2014-Sep-16 06:28N 51°05' E 003°45'0 0.0
2014-Sep-16 05:33N 51°05' E 003°45'0 0.2
2014-Sep-16 04:33N 51°05' E 003°45'0 0.0
2014-Sep-16 03:34N 51°05' E 003°45'0 0.1
2014-Sep-16 02:33N 51°05' E 003°45'0 0.0
2014-Sep-16 01:33N 51°05' E 003°45'0 0.0
2014-Sep-16 00:33N 51°05' E 003°45'0 0.0
2014-Sep-15 23:33N 51°05' E 003°45'0 0.0
2014-Sep-15 22:33N 51°05' E 003°45'0 0.0
2014-Sep-15 21:33N 51°05' E 003°45'0 0.0
2014-Sep-15 20:33N 51°05' E 003°45'0 0.0
2014-Sep-15 19:33N 51°05' E 003°45'0 0.0
2014-Sep-15 18:33N 51°05' E 003°45'0 0.0
2014-Sep-15 17:33N 51°05' E 003°45'0 0.0
2014-Sep-15 16:33N 51°05' E 003°45'0 0.0
2014-Sep-15 15:33N 51°05' E 003°45'0 0.0
2014-Sep-15 14:33N 51°05' E 003°45'0 0.2
2014-Sep-15 13:28N 51°06' E 003°45'0 0.0
2014-Sep-15 12:28N 51°06' E 003°45'0 0.0
2014-Sep-15 11:31N 51°06' E 003°45'0 0.0
2014-Sep-15 10:31N 51°06' E 003°45'0 0.0
2014-Sep-15 09:28N 51°06' E 003°45'0 0.0
2014-Sep-15 08:31N 51°06' E 003°45'0 0.0
2014-Sep-15 07:28N 51°06' E 003°45'0 0.0
2014-Sep-15 06:34N 51°06' E 003°45'0 0.0
2014-Sep-15 05:22N 51°06' E 003°45'0 0.0
2014-Sep-15 04:33N 51°06' E 003°45'0 0.0
2014-Sep-15 03:33N 51°06' E 003°45'0 0.0
2014-Sep-15 02:33N 51°06' E 003°45'0 0.0
2014-Sep-15 01:27N 51°06' E 003°45'0 0.0
2014-Sep-15 00:33N 51°06' E 003°45'0 0.0
2014-Sep-14 23:34N 51°06' E 003°45'0 0.0
2014-Sep-14 22:33N 51°06' E 003°45'0 0.0
2014-Sep-14 21:33N 51°06' E 003°45'0 0.0
2014-Sep-14 20:33N 51°06' E 003°45'0 0.0
2014-Sep-14 19:33N 51°06' E 003°45'0 0.0
2014-Sep-14 18:33N 51°06' E 003°45'0 0.0
2014-Sep-14 17:33N 51°06' E 003°45'0 0.0
2014-Sep-14 16:33N 51°06' E 003°45'0 0.0
2014-Sep-14 15:33N 51°06' E 003°45'0 0.0
2014-Sep-14 14:33N 51°06' E 003°45'0 0.0
2014-Sep-14 13:33N 51°06' E 003°45'0 0.0
2014-Sep-14 12:33N 51°06' E 003°45'0 0.0
2014-Sep-14 11:33N 51°06' E 003°45'0 0.0
2014-Sep-14 10:33N 51°06' E 003°45'0 0.0
2014-Sep-14 09:33N 51°06' E 003°45'0 0.0
2014-Sep-14 08:30N 51°06' E 003°45'0 0.0
2014-Sep-14 07:30N 51°06' E 003°45'0 0.0
2014-Sep-14 06:33N 51°06' E 003°45'0 0.0
2014-Sep-14 05:33N 51°06' E 003°45'0 0.0
2014-Sep-14 04:33N 51°06' E 003°45'0 0.0
2014-Sep-14 03:30N 51°06' E 003°45'0 0.0
2014-Sep-14 02:33N 51°06' E 003°45'0 0.0
2014-Sep-14 01:33N 51°06' E 003°45'0 0.0
2014-Sep-13 21:33N 51°06' E 003°45'0 0.0
2014-Sep-13 20:33N 51°06' E 003°45'0 0.0
2014-Sep-13 19:33N 51°06' E 003°45'0 0.0
2014-Sep-13 18:33N 51°06' E 003°45'0 0.0
2014-Sep-13 17:33N 51°06' E 003°45'0 0.0
2014-Sep-13 16:33N 51°06' E 003°45'0 0.0
2014-Sep-13 15:33N 51°06' E 003°45'0 0.0
2014-Sep-13 14:27N 51°06' E 003°45'0 0.0
2014-Sep-13 13:32N 51°06' E 003°45'0 0.0
2014-Sep-13 12:32N 51°06' E 003°45'7 6.6
2014-Sep-13 11:33N 51°12' E 003°48'8 7.7
2014-Sep-13 10:33N 51°19' E 003°49'1 0.7
2014-Sep-13 09:33N 51°20' E 003°49'6 6.1
2014-Sep-13 08:33N 51°24' E 003°41'7 6.6
2014-Sep-13 07:33N 51°27' E 003°32'7 7.1
2014-Sep-13 06:33N 51°33' E 003°25'8 8.2
2014-Sep-13 05:33N 51°40' E 003°19'8 7.0
2014-Sep-13 04:26N 51°45' E 003°10'5 4.7
2014-Sep-13 03:28N 51°47' E 003°02'7 7.2
2014-Sep-13 02:33N 51°49' E 002°53'9 9.3
2014-Sep-13 01:33N 51°55' E 002°41'35 8.8
2014-Sep-12 21:33N 52°25' E 002°11'9 9.0
2014-Sep-12 20:33N 52°33' E 002°04'9 9.2
2014-Sep-12 19:33N 52°41' E 001°57'9 9.2
2014-Sep-12 18:33N 52°48' E 001°47'9 8.7
2014-Sep-12 17:33N 52°53' E 001°36'8 7.6
2014-Sep-12 16:33N 52°58' E 001°26'8 7.5
2014-Sep-12 15:33N 53°03' E 001°16'35 0.9
2014-Sep-11 00:03N 52°58' E 000°18'1 0.3
2014-Sep-10 20:32N 52°58' E 000°20'10 8.2
2014-Sep-10 19:20N 52°48' E 000°22'  

Dump ship's entire track history